Time;durP1;ratioP1;P1;durP2;ratioP2;P2;SDS_P1;SDS_P2;PMS_P1;PMS_P2;Temp;Humidity;BMP_temperature;BMP_pressure;BME280_temperature;BME280_humidity;BME280_pressure;Samples;Min_cycle;Max_cycle;Signal;HPM_P1;HPM_P2
2022/01/07 00:00:26;;;;;;;26.13;16.52;;;;;;;;;;5128097;27;20058;-50
2022/01/07 00:02:54;;;;;;;24.73;18.10;;;;;;;;;;5127803;27;20799;-50
2022/01/07 00:05:19;;;;;;;19.10;13.48;;;;;;;;;;5127398;27;20023;-47
2022/01/07 00:07:45;;;;;;;19.05;13.65;;;;;;;;;;5126915;27;20049;-46
2022/01/07 00:10:12;;;;;;;25.10;15.32;;;;;;;;;;5126699;27;20125;-50
2022/01/07 00:12:40;;;;;;;22.10;14.70;;;;;;;;;;5127617;27;20064;-48
2022/01/07 00:15:05;;;;;;;14.75;11.70;;;;;;;;;;5127424;27;20043;-46
2022/01/07 00:17:31;;;;;;;19.85;11.70;;;;;;;;;;5126458;27;20096;-49
2022/01/07 00:19:56;;;;;;;8.13;6.97;;;;;;;;;;5126897;27;20104;-47
2022/01/07 00:22:22;;;;;;;8.68;7.28;;;;;;;;;;5126630;27;20503;-46
2022/01/07 00:24:47;;;;;;;9.50;6.80;;;;;;;;;;5127477;27;20030;-47
2022/01/07 00:27:12;;;;;;;12.65;8.18;;;;;;;;;;5125600;27;20040;-46
2022/01/07 00:29:38;;;;;;;12.75;8.48;;;;;;;;;;5127648;27;20109;-47
2022/01/07 00:32:03;;;;;;;24.60;13.35;;;;;;;;;;5126618;27;20038;-49
2022/01/07 00:34:28;;;;;;;12.13;9.40;;;;;;;;;;5127451;27;20027;-52
2022/01/07 00:36:54;;;;;;;21.02;10.85;;;;;;;;;;5127144;27;20452;-47
2022/01/07 00:39:20;;;;;;;11.07;8.75;;;;;;;;;;5127180;27;20024;-48
2022/01/07 00:41:45;;;;;;;9.18;6.38;;;;;;;;;;5126994;27;20019;-48
2022/01/07 00:44:10;;;;;;;9.43;4.15;;;;;;;;;;5127198;27;20106;-45
2022/01/07 00:46:36;;;;;;;7.25;2.83;;;;;;;;;;5125702;27;20067;-46
2022/01/07 00:49:01;;;;;;;5.38;2.28;;;;;;;;;;5126546;27;20015;-49
2022/01/07 00:51:26;;;;;;;7.93;3.50;;;;;;;;;;5126581;27;20389;-48
2022/01/07 00:53:52;;;;;;;11.75;5.55;;;;;;;;;;5127364;27;20541;-49
2022/01/07 00:56:17;;;;;;;30.05;17.17;;;;;;;;;;5127057;27;20023;-47
2022/01/07 00:58:42;;;;;;;25.20;13.27;;;;;;;;;;5125161;27;20030;-52
2022/01/07 01:01:08;;;;;;;12.07;7.53;;;;;;;;;;5127683;27;20023;-47
2022/01/07 01:03:33;;;;;;;11.52;3.83;;;;;;;;;;5126585;27;20488;-50
2022/01/07 01:05:58;;;;;;;8.75;4.78;;;;;;;;;;5126784;28;20674;-47
2022/01/07 01:08:27;;;;;;;7.82;4.00;;;;;;;;;;5126921;28;20035;-48
2022/01/07 01:10:53;;;;;;;6.22;3.03;;;;;;;;;;5124912;28;20152;-47
2022/01/07 01:13:19;;;;;;;4.47;2.30;;;;;;;;;;5125916;28;20015;-51
2022/01/07 01:15:44;;;;;;;2.67;1.40;;;;;;;;;;5126592;28;20394;-45
2022/01/07 01:18:09;;;;;;;7.05;2.85;;;;;;;;;;5125275;27;20474;-51
2022/01/07 01:20:35;;;;;;;11.27;6.75;;;;;;;;;;5129388;27;20066;-47
2022/01/07 01:23:00;;;;;;;13.25;4.97;;;;;;;;;;5130047;27;20019;-45
2022/01/07 01:25:26;;;;;;;21.90;8.43;;;;;;;;;;5130600;27;20091;-46
2022/01/07 01:27:51;;;;;;;5.55;2.72;;;;;;;;;;5129536;27;20094;-48
2022/01/07 01:30:17;;;;;;;25.95;7.50;;;;;;;;;;5128289;27;20031;-48
2022/01/07 01:32:44;;;;;;;35.53;14.85;;;;;;;;;;5129606;27;20031;-47
2022/01/07 01:35:10;;;;;;;27.85;11.80;;;;;;;;;;5130168;27;20015;-49
2022/01/07 01:37:35;;;;;;;21.70;9.25;;;;;;;;;;5130234;27;20072;-45
2022/01/07 01:40:01;;;;;;;10.52;8.43;;;;;;;;;;5130121;27;20023;-46
2022/01/07 01:42:26;;;;;;;18.85;8.70;;;;;;;;;;5130493;27;20053;-48
2022/01/07 01:44:51;;;;;;;16.92;8.77;;;;;;;;;;5130319;27;20815;-46
2022/01/07 01:47:17;;;;;;;14.55;7.30;;;;;;;;;;5129954;27;20026;-45
2022/01/07 01:49:42;;;;;;;15.48;7.13;;;;;;;;;;5129095;27;20099;-45
2022/01/07 01:52:08;;;;;;;8.38;6.53;;;;;;;;;;5130032;27;20035;-46
2022/01/07 01:54:33;;;;;;;12.40;6.95;;;;;;;;;;5130913;27;20649;-47
2022/01/07 01:56:58;;;;;;;18.58;6.78;;;;;;;;;;5130354;27;20379;-49
2022/01/07 01:59:28;;;;;;;14.13;7.13;;;;;;;;;;5130069;27;20023;-50
2022/01/07 02:01:54;;;;;;;13.65;7.93;;;;;;;;;;5130013;27;20057;-47
2022/01/07 02:04:19;;;;;;;12.73;7.75;;;;;;;;;;5129341;27;20062;-47
2022/01/07 02:06:44;;;;;;;12.57;7.38;;;;;;;;;;5127384;27;20026;-48
2022/01/07 02:09:10;;;;;;;12.45;6.30;;;;;;;;;;5130125;27;20453;-49
2022/01/07 02:11:36;;;;;;;15.35;6.45;;;;;;;;;;5129711;27;20068;-46
2022/01/07 02:14:01;;;;;;;13.65;7.55;;;;;;;;;;5130284;27;20075;-46
2022/01/07 02:16:27;;;;;;;9.70;7.00;;;;;;;;;;5130275;27;20095;-47
2022/01/07 02:18:52;;;;;;;12.95;7.35;;;;;;;;;;5130867;27;20406;-46
2022/01/07 02:21:17;;;;;;;14.27;7.88;;;;;;;;;;5129963;27;20494;-48
2022/01/07 02:23:43;;;;;;;8.93;4.93;;;;;;;;;;5130056;27;20042;-49
2022/01/07 02:26:08;;;;;;;9.02;4.57;;;;;;;;;;5129652;27;20470;-48
2022/01/07 02:28:34;;;;;;;8.45;4.10;;;;;;;;;;5129927;27;20008;-49
2022/01/07 02:30:59;;;;;;;10.05;4.57;;;;;;;;;;5129203;27;20418;-48
2022/01/07 02:33:25;;;;;;;8.65;5.53;;;;;;;;;;5129818;27;20019;-45
2022/01/07 02:35:50;;;;;;;4.70;3.42;;;;;;;;;;5128538;27;20490;-44
2022/01/07 02:38:16;;;;;;;5.15;3.35;;;;;;;;;;5129139;27;20022;-48
2022/01/07 02:40:41;;;;;;;11.70;3.15;;;;;;;;;;5127960;27;20023;-44
2022/01/07 02:43:07;;;;;;;4.15;2.15;;;;;;;;;;5129800;27;20034;-49
2022/01/07 02:45:32;;;;;;;6.18;2.72;;;;;;;;;;5129132;27;20022;-50
2022/01/07 02:47:59;;;;;;;10.30;2.97;;;;;;;;;;5129649;27;20706;-47
2022/01/07 02:50:42;;;;;;;5.55;2.10;;;;;;;;;;5128895;27;20023;-49
2022/01/07 02:53:08;;;;;;;6.68;2.00;;;;;;;;;;5129106;27;20023;-50
2022/01/07 02:55:34;;;;;;;5.47;1.50;;;;;;;;;;5129565;27;20019;-46
2022/01/07 02:58:00;;;;;;;4.82;2.63;;;;;;;;;;5125823;27;20372;-47
2022/01/07 03:00:26;;;;;;;10.68;3.38;;;;;;;;;;5129691;27;20023;-48
2022/01/07 03:02:52;;;;;;;15.02;7.47;;;;;;;;;;5129079;27;20428;-44
2022/01/07 03:05:18;;;;;;;21.80;6.82;;;;;;;;;;5128899;27;20076;-51
2022/01/07 03:07:47;;;;;;;14.93;5.32;;;;;;;;;;5128613;27;20019;-48
2022/01/07 03:10:12;;;;;;;18.45;6.47;;;;;;;;;;5128818;27;20015;-48
2022/01/07 03:12:38;;;;;;;13.77;7.63;;;;;;;;;;5129192;27;20092;-47
2022/01/07 03:15:06;;;;;;;11.02;4.80;;;;;;;;;;5129591;27;20083;-47
2022/01/07 03:17:32;;;;;;;9.32;5.80;;;;;;;;;;5129175;27;20469;-50
2022/01/07 03:19:57;;;;;;;9.90;6.38;;;;;;;;;;5127804;27;20046;-46
2022/01/07 03:22:22;;;;;;;11.35;4.78;;;;;;;;;;5128750;27;20027;-49
2022/01/07 03:24:48;;;;;;;12.70;4.85;;;;;;;;;;5128567;27;20031;-46
2022/01/07 03:27:13;;;;;;;23.00;10.40;;;;;;;;;;5128760;27;20011;-49
2022/01/07 03:29:38;;;;;;;18.98;11.77;;;;;;;;;;5128463;27;20110;-49
2022/01/07 03:32:04;;;;;;;13.90;10.20;;;;;;;;;;5127950;27;20430;-51
2022/01/07 03:34:29;;;;;;;15.70;9.45;;;;;;;;;;5128960;27;20066;-48
2022/01/07 03:36:55;;;;;;;7.43;4.88;;;;;;;;;;5127513;27;20023;-49
2022/01/07 03:39:20;;;;;;;4.47;2.97;;;;;;;;;;5128852;27;20039;-46
2022/01/07 03:41:45;;;;;;;5.28;2.72;;;;;;;;;;5127898;27;20064;-48
2022/01/07 03:44:11;;;;;;;3.22;1.83;;;;;;;;;;5125521;27;20027;-48
2022/01/07 03:46:36;;;;;;;8.20;2.40;;;;;;;;;;5127778;27;20027;-51
2022/01/07 03:49:02;;;;;;;8.57;4.82;;;;;;;;;;5126251;27;20007;-46
2022/01/07 03:51:27;;;;;;;9.30;4.72;;;;;;;;;;5128088;27;20538;-45
2022/01/07 03:53:52;;;;;;;12.70;5.50;;;;;;;;;;5128016;27;20529;-50
2022/01/07 03:56:20;;;;;;;9.50;6.43;;;;;;;;;;5127328;27;20094;-47
2022/01/07 03:58:46;;;;;;;14.88;4.68;;;;;;;;;;5127066;27;20023;-48
2022/01/07 04:01:11;;;;;;;8.48;3.83;;;;;;;;;;5127685;27;20076;-49
2022/01/07 04:03:37;;;;;;;11.43;4.82;;;;;;;;;;5127605;27;20026;-50
2022/01/07 04:06:02;;;;;;;39.30;15.23;;;;;;;;;;5127469;27;20071;-47
2022/01/07 04:08:27;;;;;;;9.57;5.78;;;;;;;;;;5126715;27;20029;-48
2022/01/07 04:10:53;;;;;;;7.38;2.97;;;;;;;;;;5127483;27;20023;-47
2022/01/07 04:13:18;;;;;;;10.95;5.32;;;;;;;;;;5127185;27;20019;-51
2022/01/07 04:15:43;;;;;;;8.43;4.45;;;;;;;;;;5126482;27;20462;-50
2022/01/07 04:18:09;;;;;;;7.65;3.47;;;;;;;;;;5126956;27;20027;-48
2022/01/07 04:20:35;;;;;;;10.20;4.38;;;;;;;;;;5127692;27;20043;-48
2022/01/07 04:23:01;;;;;;;5.22;2.90;;;;;;;;;;5127889;27;20027;-46
2022/01/07 04:25:26;;;;;;;12.32;3.17;;;;;;;;;;5127268;27;20023;-52
2022/01/07 04:27:59;;;;;;;11.73;3.42;;;;;;;;;;5124803;27;20030;-49
2022/01/07 04:30:25;;;;;;;4.30;1.95;;;;;;;;;;5126712;27;20023;-49
2022/01/07 04:32:53;;;;;;;3.40;2.28;;;;;;;;;;5127182;27;20495;-49
2022/01/07 04:35:18;;;;;;;10.25;1.73;;;;;;;;;;5126775;27;20023;-48
2022/01/07 04:37:43;;;;;;;3.72;1.60;;;;;;;;;;5125991;27;20038;-48
2022/01/07 04:40:10;;;;;;;10.05;2.13;;;;;;;;;;5126710;27;20027;-48
2022/01/07 04:42:36;;;;;;;2.45;1.15;;;;;;;;;;5126472;27;20015;-44
2022/01/07 04:45:01;;;;;;;2.08;0.95;;;;;;;;;;5126014;27;20031;-50
2022/01/07 04:47:26;;;;;;;4.75;1.90;;;;;;;;;;5126588;27;20082;-45
2022/01/07 04:49:52;;;;;;;6.70;2.33;;;;;;;;;;5126919;27;20035;-48
2022/01/07 04:52:17;;;;;;;3.08;1.05;;;;;;;;;;5127184;27;20015;-48
2022/01/07 04:54:44;;;;;;;4.45;1.98;;;;;;;;;;5126257;27;20043;-48
2022/01/07 04:57:09;;;;;;;8.73;2.45;;;;;;;;;;5126314;27;20024;-47
2022/01/07 04:59:34;;;;;;;4.60;2.45;;;;;;;;;;5126832;27;20502;-51
2022/01/07 05:02:00;;;;;;;3.47;2.55;;;;;;;;;;5126675;27;20097;-49
2022/01/07 05:04:25;;;;;;;5.72;3.28;;;;;;;;;;5126964;27;20033;-48
2022/01/07 05:06:52;;;;;;;8.93;1.90;;;;;;;;;;5126587;28;20019;-48
2022/01/07 05:09:18;;;;;;;5.00;1.88;;;;;;;;;;5125163;28;20066;-49
2022/01/07 05:11:44;;;;;;;2.28;1.25;;;;;;;;;;5126063;28;20027;-48
2022/01/07 05:14:10;;;;;;;16.08;2.97;;;;;;;;;;5125191;28;20015;-47
2022/01/07 05:16:35;;;;;;;3.65;2.55;;;;;;;;;;5127055;28;20068;-49
2022/01/07 05:19:01;;;;;;;3.70;1.90;;;;;;;;;;5126913;28;20407;-47
2022/01/07 05:21:26;;;;;;;7.45;2.35;;;;;;;;;;5107231;28;20086;-47
2022/01/07 05:23:52;;;;;;;11.57;3.88;;;;;;;;;;5125047;28;20617;-49
2022/01/07 05:26:17;;;;;;;5.82;2.92;;;;;;;;;;5125709;28;20007;-47
2022/01/07 05:28:42;;;;;;;8.45;3.05;;;;;;;;;;5126394;28;20103;-47
2022/01/07 05:31:08;;;;;;;6.93;2.80;;;;;;;;;;5125204;28;20019;-45
2022/01/07 05:33:33;;;;;;;5.75;1.95;;;;;;;;;;5126818;28;20091;-46
2022/01/07 05:35:58;;;;;;;7.43;3.20;;;;;;;;;;5126107;28;20447;-47
2022/01/07 05:38:23;;;;;;;5.90;4.38;;;;;;;;;;5126132;28;20027;-48
2022/01/07 05:40:49;;;;;;;7.70;3.33;;;;;;;;;;5125021;28;20023;-49
2022/01/07 05:43:14;;;;;;;7.97;2.28;;;;;;;;;;5127030;28;20031;-47
2022/01/07 05:45:40;;;;;;;2.97;1.38;;;;;;;;;;5126793;28;20018;-48
2022/01/07 05:48:06;;;;;;;7.35;2.55;;;;;;;;;;5124009;28;20019;-49
2022/01/07 05:50:31;;;;;;;4.40;1.67;;;;;;;;;;5126616;28;20064;-45
2022/01/07 05:52:56;;;;;;;6.57;1.65;;;;;;;;;;5124255;28;20019;-48
2022/01/07 05:55:22;;;;;;;3.95;2.08;;;;;;;;;;5124308;27;20666;-45
2022/01/07 05:57:47;;;;;;;8.27;2.45;;;;;;;;;;5124496;28;20015;-47
2022/01/07 06:00:13;;;;;;;9.70;2.75;;;;;;;;;;5126385;28;20486;-49
2022/01/07 06:02:38;;;;;;;5.20;1.85;;;;;;;;;;5125943;28;20019;-48
2022/01/07 06:05:04;;;;;;;4.28;3.33;;;;;;;;;;5126597;27;20474;-48
2022/01/07 06:07:29;;;;;;;11.85;2.47;;;;;;;;;;5130005;27;20387;-48
2022/01/07 06:09:54;;;;;;;4.20;2.35;;;;;;;;;;5130838;27;20408;-47
2022/01/07 06:12:20;;;;;;;3.70;1.60;;;;;;;;;;5129586;27;20748;-51
2022/01/07 06:14:45;;;;;;;3.95;1.52;;;;;;;;;;5130414;27;20019;-50
2022/01/07 06:17:11;;;;;;;3.47;2.00;;;;;;;;;;5130418;27;20023;-50
2022/01/07 06:19:37;;;;;;;3.47;2.45;;;;;;;;;;5129900;27;20043;-47
2022/01/07 06:22:03;;;;;;;8.90;2.75;;;;;;;;;;5129856;27;20054;-46
2022/01/07 06:24:28;;;;;;;4.75;3.78;;;;;;;;;;5130171;27;20080;-50
2022/01/07 06:26:54;;;;;;;6.32;3.60;;;;;;;;;;5128874;27;20028;-47
2022/01/07 06:29:19;;;;;;;16.23;6.85;;;;;;;;;;5129036;27;20029;-47
2022/01/07 06:31:44;;;;;;;11.40;6.10;;;;;;;;;;5128722;27;20118;-50
2022/01/07 06:34:09;;;;;;;8.07;5.88;;;;;;;;;;5130045;27;20567;-47
2022/01/07 06:36:35;;;;;;;13.68;6.72;;;;;;;;;;5129678;27;20114;-47
2022/01/07 06:39:00;;;;;;;8.32;6.00;;;;;;;;;;5126764;27;20025;-52
2022/01/07 06:41:26;;;;;;;10.93;6.60;;;;;;;;;;5128086;27;20692;-49
2022/01/07 06:43:51;;;;;;;23.70;15.48;;;;;;;;;;5128398;27;20027;-51
2022/01/07 06:46:16;;;;;;;28.70;12.82;;;;;;;;;;5110592;27;20017;-48
2022/01/07 06:48:43;;;;;;;11.27;8.50;;;;;;;;;;5129357;27;20020;-49
2022/01/07 06:51:08;;;;;;;16.50;5.85;;;;;;;;;;5129001;27;20083;-47
2022/01/07 06:53:34;;;;;;;11.25;6.53;;;;;;;;;;5129500;27;20023;-49
2022/01/07 06:55:59;;;;;;;15.82;6.03;;;;;;;;;;5111419;27;20031;-51
2022/01/07 06:58:25;;;;;;;10.32;5.55;;;;;;;;;;5126925;27;20539;-51
2022/01/07 07:00:51;;;;;;;7.45;5.35;;;;;;;;;;5128984;27;20023;-47
2022/01/07 07:03:16;;;;;;;17.98;8.82;;;;;;;;;;5126779;27;20506;-45
2022/01/07 07:05:41;;;;;;;6.07;5.30;;;;;;;;;;5124657;27;20019;-50
2022/01/07 07:08:06;;;;;;;13.73;7.85;;;;;;;;;;5128983;27;20414;-49
2022/01/07 07:10:32;;;;;;;8.55;6.07;;;;;;;;;;5125855;27;20865;-47
2022/01/07 07:12:57;;;;;;;8.50;5.18;;;;;;;;;;5128153;27;20034;-46
2022/01/07 07:15:22;;;;;;;12.63;4.97;;;;;;;;;;5129154;27;20037;-51
2022/01/07 07:17:48;;;;;;;13.85;7.25;;;;;;;;;;5126603;27;20106;-47
2022/01/07 07:20:14;;;;;;;14.20;7.43;;;;;;;;;;5128534;27;20142;-50
2022/01/07 07:22:39;;;;;;;10.18;5.25;;;;;;;;;;5127483;27;20071;-49
2022/01/07 07:25:05;;;;;;;10.82;6.45;;;;;;;;;;5128764;27;20019;-52
2022/01/07 07:27:30;;;;;;;13.25;10.90;;;;;;;;;;5127242;27;20371;-50
2022/01/07 07:29:55;;;;;;;16.75;13.20;;;;;;;;;;5127763;27;20461;-50
2022/01/07 07:32:26;;;;;;;14.40;9.43;;;;;;;;;;5127850;27;20031;-48
2022/01/07 07:35:01;;;;;;;19.35;16.80;;;;;;;;;;5128193;27;20441;-48
2022/01/07 07:37:26;;;;;;;11.27;9.15;;;;;;;;;;5128343;27;20023;-53
2022/01/07 07:39:52;;;;;;;26.90;19.75;;;;;;;;;;5126027;27;20386;-48
2022/01/07 07:42:17;;;;;;;19.77;11.60;;;;;;;;;;5128279;27;20030;-47
2022/01/07 07:44:42;;;;;;;21.58;13.82;;;;;;;;;;5127772;27;20737;-46
2022/01/07 07:47:08;;;;;;;16.38;13.52;;;;;;;;;;5127771;27;20007;-49
2022/01/07 07:49:33;;;;;;;22.20;11.98;;;;;;;;;;5127058;27;20481;-49
2022/01/07 07:51:58;;;;;;;12.85;10.75;;;;;;;;;;5126656;27;20023;-47
2022/01/07 07:54:24;;;;;;;23.90;12.35;;;;;;;;;;5127045;27;20134;-48
2022/01/07 07:56:49;;;;;;;17.67;10.77;;;;;;;;;;5127112;27;20040;-45
2022/01/07 07:59:15;;;;;;;22.75;13.02;;;;;;;;;;5125429;27;20019;-48
2022/01/07 08:01:41;;;;;;;18.83;11.52;;;;;;;;;;5128232;27;20023;-49
2022/01/07 08:04:07;;;;;;;13.43;11.10;;;;;;;;;;5126998;27;20470;-48
2022/01/07 08:06:32;;;;;;;10.68;9.32;;;;;;;;;;5127337;27;20030;-49
2022/01/07 08:08:58;;;;;;;27.55;8.65;;;;;;;;;;5124967;27;20012;-48
2022/01/07 08:11:27;;;;;;;13.82;7.60;;;;;;;;;;5126585;27;20034;-50
2022/01/07 08:16:36;;;;;;;21.17;16.00;;;;;;;;;;5127610;27;20030;-47
2022/01/07 08:19:01;;;;;;;21.90;17.73;;;;;;;;;;5125362;27;20389;-47
2022/01/07 08:21:28;;;;;;;32.42;17.83;;;;;;;;;;5127249;27;20054;-45
2022/01/07 08:23:54;;;;;;;31.75;23.92;;;;;;;;;;5127093;27;20023;-49
2022/01/07 08:26:20;;;;;;;39.22;26.25;;;;;;;;;;5126933;27;20042;-47
2022/01/07 08:28:52;;;;;;;36.53;22.60;;;;;;;;;;5127039;27;20554;-47
2022/01/07 08:36:28;;;;;;;61.97;42.10;;;;;;;;;;5125234;27;20030;-60
2022/01/07 08:38:54;;;;;;;63.30;38.97;;;;;;;;;;5127342;27;20242;-60
2022/01/07 08:41:21;;;;;;;49.75;40.17;;;;;;;;;;5127014;27;20462;-60
2022/01/07 08:43:46;;;;;;;50.38;38.03;;;;;;;;;;5126865;27;20019;-53
2022/01/07 08:46:11;;;;;;;61.22;37.30;;;;;;;;;;5123973;27;20018;-55
2022/01/07 08:48:37;;;;;;;35.58;26.90;;;;;;;;;;5126086;27;20484;-56
2022/01/07 08:51:03;;;;;;;29.23;23.27;;;;;;;;;;5123326;27;20035;-56
2022/01/07 08:53:29;;;;;;;34.10;22.45;;;;;;;;;;5126725;27;20046;-55
2022/01/07 08:55:54;;;;;;;33.00;29.40;;;;;;;;;;5125864;27;20031;-60
2022/01/07 08:58:20;;;;;;;68.38;43.97;;;;;;;;;;5125483;27;20098;-59
2022/01/07 09:00:45;;;;;;;51.95;40.47;;;;;;;;;;5125983;27;20518;-58
2022/01/07 09:03:10;;;;;;;135.13;99.95;;;;;;;;;;5126520;27;20060;-60
2022/01/07 09:05:36;;;;;;;76.03;60.78;;;;;;;;;;5126393;27;20757;-59
2022/01/07 09:08:01;;;;;;;64.82;49.83;;;;;;;;;;5124971;28;20474;-59
2022/01/07 09:10:26;;;;;;;68.95;58.30;;;;;;;;;;5124300;28;20027;-59
2022/01/07 09:12:52;;;;;;;71.20;63.30;;;;;;;;;;5126565;28;20046;-60
2022/01/07 09:15:18;;;;;;;79.70;67.53;;;;;;;;;;5127459;27;20027;-60
2022/01/07 09:17:43;;;;;;;74.35;66.57;;;;;;;;;;5127392;28;20102;-61
2022/01/07 09:20:09;;;;;;;71.00;60.28;;;;;;;;;;5126815;28;20039;-60
2022/01/07 09:22:35;;;;;;;64.40;52.47;;;;;;;;;;5125549;28;20141;-59
2022/01/07 09:25:00;;;;;;;65.40;57.53;;;;;;;;;;5125671;28;20652;-59
2022/01/07 09:27:26;;;;;;;67.10;57.80;;;;;;;;;;5126944;28;20641;-59
2022/01/07 09:29:51;;;;;;;65.00;57.22;;;;;;;;;;5125802;28;20046;-64
2022/01/07 09:32:16;;;;;;;64.20;57.50;;;;;;;;;;5125464;28;20071;-68
2022/01/07 09:34:42;;;;;;;68.95;61.58;;;;;;;;;;5127035;27;20531;-61
2022/01/07 09:37:07;;;;;;;73.45;65.53;;;;;;;;;;5127884;28;20390;-63
2022/01/07 09:39:33;;;;;;;78.90;63.92;;;;;;;;;;5125924;27;20085;-63
2022/01/07 09:41:59;;;;;;;80.90;67.15;;;;;;;;;;5130290;27;20011;-66
2022/01/07 09:44:24;;;;;;;94.13;77.50;;;;;;;;;;5129870;27;20522;-63
2022/01/07 09:46:49;;;;;;;89.18;78.75;;;;;;;;;;5128286;27;20188;-66
2022/01/07 09:49:15;;;;;;;103.60;80.20;;;;;;;;;;5130138;27;20023;-62
2022/01/07 09:51:41;;;;;;;90.18;72.57;;;;;;;;;;5128621;27;20491;-68
2022/01/07 09:54:06;;;;;;;89.30;67.85;;;;;;;;;;5127307;27;20043;-68
2022/01/07 09:56:32;;;;;;;79.78;66.75;;;;;;;;;;5128964;27;20034;-69
2022/01/07 09:58:57;;;;;;;71.82;57.67;;;;;;;;;;5125649;27;20050;-69
2022/01/07 10:01:25;;;;;;;86.90;63.72;;;;;;;;;;5130173;27;20587;-68
2022/01/07 10:03:50;;;;;;;71.60;63.72;;;;;;;;;;5126880;27;20030;-68
2022/01/07 10:06:17;;;;;;;88.30;64.43;;;;;;;;;;5129933;27;20015;-69
2022/01/07 10:08:43;;;;;;;99.55;77.47;;;;;;;;;;5129116;27;20065;-66
2022/01/07 10:11:08;;;;;;;79.82;64.50;;;;;;;;;;5129492;27;20497;-66
2022/01/07 10:13:33;;;;;;;41.55;33.00;;;;;;;;;;5128137;27;20059;-65
2022/01/07 10:16:11;;;;;;;40.40;29.88;;;;;;;;;;5129685;27;20015;-66
2022/01/07 10:18:39;;;;;;;27.98;24.73;;;;;;;;;;5129110;27;20076;-67
2022/01/07 10:21:08;;;;;;;31.60;25.20;;;;;;;;;;5128512;27;20043;-64
2022/01/07 10:23:34;;;;;;;28.70;17.27;;;;;;;;;;5129438;27;20023;-64
2022/01/07 10:25:59;;;;;;;17.38;11.73;;;;;;;;;;5126043;27;20023;-65
2022/01/07 10:28:32;;;;;;;11.68;7.18;;;;;;;;;;5127902;27;20505;-66
2022/01/07 10:31:00;;;;;;;20.67;13.82;;;;;;;;;;5127305;27;20486;-66
2022/01/07 10:33:29;;;;;;;9.25;6.90;;;;;;;;;;5127259;27;20512;-65
2022/01/07 10:35:56;;;;;;;12.38;10.57;;;;;;;;;;5128488;27;20019;-64
2022/01/07 10:38:22;;;;;;;6.65;5.25;;;;;;;;;;5128011;27;20094;-65
2022/01/07 10:40:49;;;;;;;10.20;7.15;;;;;;;;;;5126403;27;20015;-63
2022/01/07 10:43:20;;;;;;;6.60;5.28;;;;;;;;;;5128604;27;20372;-65
2022/01/07 10:45:47;;;;;;;9.23;6.38;;;;;;;;;;5125030;27;20030;-71
2022/01/07 10:48:12;;;;;;;9.60;6.70;;;;;;;;;;5116177;27;20033;-66
2022/01/07 10:50:42;;;;;;;16.92;8.65;;;;;;;;;;5120983;27;20019;-64
2022/01/07 10:53:18;;;;;;;9.93;6.05;;;;;;;;;;5119684;27;20015;-65
2022/01/07 10:55:57;;;;;;;8.57;5.60;;;;;;;;;;5120128;27;20079;-63
2022/01/07 10:58:23;;;;;;;12.32;9.15;;;;;;;;;;5124214;27;20494;-64
2022/01/07 11:00:48;;;;;;;11.52;5.95;;;;;;;;;;5118488;27;20022;-63
2022/01/07 11:03:13;;;;;;;16.58;11.35;;;;;;;;;;5124553;27;20019;-63
2022/01/07 11:05:39;;;;;;;10.77;7.03;;;;;;;;;;5120665;27;20034;-62
2022/01/07 11:08:04;;;;;;;10.50;6.00;;;;;;;;;;5121734;27;20047;-63
2022/01/07 11:10:29;;;;;;;17.30;6.50;;;;;;;;;;5125811;27;20543;-62
2022/01/07 11:12:56;;;;;;;15.18;10.57;;;;;;;;;;5118436;27;20469;-62
2022/01/07 11:15:22;;;;;;;9.38;4.68;;;;;;;;;;5123254;27;20023;-63
2022/01/07 11:17:47;;;;;;;10.20;3.00;;;;;;;;;;5101501;27;20041;-63
2022/01/07 11:20:14;;;;;;;4.72;2.85;;;;;;;;;;5121737;27;20101;-63
2022/01/07 11:22:42;;;;;;;9.63;6.35;;;;;;;;;;5123067;27;20027;-62
2022/01/07 11:25:11;;;;;;;27.40;14.27;;;;;;;;;;5118102;27;20042;-62
2022/01/07 11:27:46;;;;;;;12.60;6.05;;;;;;;;;;5123965;27;20034;-62
2022/01/07 11:30:15;;;;;;;8.88;4.07;;;;;;;;;;5120252;27;20080;-62
2022/01/07 11:32:46;;;;;;;6.47;2.97;;;;;;;;;;5122256;27;20052;-59
2022/01/07 11:35:17;;;;;;;5.20;2.83;;;;;;;;;;5121288;27;20077;-58
2022/01/07 11:37:45;;;;;;;7.53;5.28;;;;;;;;;;5119422;27;20053;-59
2022/01/07 11:40:26;;;;;;;19.92;6.15;;;;;;;;;;5123338;27;20085;-58
2022/01/07 11:42:51;;;;;;;8.13;4.85;;;;;;;;;;5120465;27;20528;-61
2022/01/07 11:45:40;;;;;;;3.05;2.20;;;;;;;;;;5121794;27;20027;-61
2022/01/07 11:48:20;;;;;;;8.60;3.15;;;;;;;;;;5105556;27;20031;-61
2022/01/07 11:50:55;;;;;;;3.80;1.65;;;;;;;;;;5122126;27;20810;-61
2022/01/07 11:53:23;;;;;;;3.00;1.30;;;;;;;;;;5124388;27;20019;-61
2022/01/07 11:55:51;;;;;;;6.10;1.77;;;;;;;;;;5119239;27;20035;-61
2022/01/07 11:58:17;;;;;;;5.95;2.28;;;;;;;;;;5123162;27;20494;-61
2022/01/07 12:00:54;;;;;;;11.88;3.47;;;;;;;;;;5119535;27;20031;-61
2022/01/07 12:03:38;;;;;;;5.55;3.33;;;;;;;;;;5121228;27;20023;-61
2022/01/07 12:06:26;;;;;;;4.20;3.22;;;;;;;;;;5115900;27;20799;-61
2022/01/07 12:09:00;;;;;;;4.15;2.72;;;;;;;;;;5119055;27;20159;-61
2022/01/07 12:11:36;;;;;;;6.97;2.45;;;;;;;;;;5124981;27;20023;-61
2022/01/07 12:14:03;;;;;;;9.00;2.65;;;;;;;;;;5116077;27;20054;-61
2022/01/07 12:16:31;;;;;;;5.72;3.63;;;;;;;;;;5121958;27;20061;-61
2022/01/07 12:19:23;;;;;;;6.90;2.40;;;;;;;;;;5118747;27;20099;-61
2022/01/07 12:21:58;;;;;;;4.80;3.05;;;;;;;;;;5091533;27;20402;-61
2022/01/07 12:24:27;;;;;;;6.25;4.57;;;;;;;;;;5117543;27;20514;-61
2022/01/07 12:27:13;;;;;;;8.05;3.90;;;;;;;;;;5115324;27;20505;-61
2022/01/07 12:29:48;;;;;;;8.07;3.75;;;;;;;;;;5123316;27;20031;-61
2022/01/07 12:32:14;;;;;;;16.38;2.85;;;;;;;;;;5117641;27;20016;-61
2022/01/07 12:34:45;;;;;;;4.45;2.50;;;;;;;;;;5122115;27;20042;-61
2022/01/07 12:37:12;;;;;;;2.72;1.65;;;;;;;;;;5120780;27;20035;-65
2022/01/07 12:39:39;;;;;;;11.85;4.13;;;;;;;;;;5122054;27;20038;-65
2022/01/07 12:42:05;;;;;;;19.50;7.28;;;;;;;;;;5118448;27;20097;-64
2022/01/07 12:44:34;;;;;;;5.43;3.20;;;;;;;;;;5114846;27;20030;-65
2022/01/07 12:47:00;;;;;;;6.53;3.92;;;;;;;;;;5118337;27;20023;-67
2022/01/07 12:49:40;;;;;;;9.82;4.60;;;;;;;;;;5118546;27;20019;-67
2022/01/07 12:52:07;;;;;;;8.10;6.07;;;;;;;;;;5116038;27;20026;-68
2022/01/07 12:54:33;;;;;;;5.15;3.88;;;;;;;;;;5121550;27;20549;-66
2022/01/07 12:56:58;;;;;;;7.93;2.08;;;;;;;;;;5115731;27;20030;-66
2022/01/07 12:59:26;;;;;;;13.40;2.83;;;;;;;;;;5122084;27;20484;-66
2022/01/07 13:01:51;;;;;;;10.75;6.85;;;;;;;;;;5116618;27;20114;-65
2022/01/07 13:04:19;;;;;;;6.28;4.05;;;;;;;;;;5121054;27;20049;-65
2022/01/07 13:06:45;;;;;;;7.32;5.93;;;;;;;;;;5120109;27;20519;-65
2022/01/07 13:09:11;;;;;;;8.52;5.55;;;;;;;;;;5118765;28;20023;-60
2022/01/07 13:11:37;;;;;;;10.77;2.90;;;;;;;;;;5120346;28;20125;-60
2022/01/07 13:14:04;;;;;;;4.80;3.03;;;;;;;;;;5121981;27;20427;-65
2022/01/07 13:16:30;;;;;;;13.18;3.72;;;;;;;;;;5119193;27;20443;-65
2022/01/07 13:19:00;;;;;;;12.07;8.65;;;;;;;;;;5128189;27;20040;-64
2022/01/07 13:21:26;;;;;;;10.25;6.38;;;;;;;;;;5122110;27;20131;-64
2022/01/07 13:23:52;;;;;;;5.40;3.60;;;;;;;;;;5123458;27;20031;-64
2022/01/07 13:26:18;;;;;;;4.18;2.95;;;;;;;;;;5126607;27;20023;-63
2022/01/07 13:28:51;;;;;;;16.35;6.03;;;;;;;;;;5121540;27;20041;-63
2022/01/07 13:31:27;;;;;;;7.53;2.47;;;;;;;;;;5123611;27;20031;-63
2022/01/07 13:33:53;;;;;;;17.00;3.65;;;;;;;;;;5126199;27;20031;-62
2022/01/07 13:36:18;;;;;;;6.78;4.45;;;;;;;;;;5124168;27;20080;-63
2022/01/07 13:38:43;;;;;;;8.70;4.43;;;;;;;;;;5120863;27;20603;-63
2022/01/07 13:41:09;;;;;;;5.40;3.53;;;;;;;;;;5124283;27;20029;-63
2022/01/07 13:43:35;;;;;;;4.80;2.38;;;;;;;;;;5122569;27;20111;-63
2022/01/07 13:46:08;;;;;;;12.27;3.92;;;;;;;;;;5121687;27;20107;-63
2022/01/07 13:48:33;;;;;;;5.18;4.68;;;;;;;;;;5122500;27;20112;-59
2022/01/07 13:51:08;;;;;;;14.65;5.50;;;;;;;;;;5122021;27;20619;-60
2022/01/07 13:53:33;;;;;;;12.98;4.93;;;;;;;;;;5104228;28;20023;-60
2022/01/07 13:56:06;;;;;;;5.10;3.13;;;;;;;;;;5128105;27;20725;-61
2022/01/07 13:58:31;;;;;;;17.92;7.43;;;;;;;;;;5122827;27;20077;-65
2022/01/07 14:01:03;;;;;;;13.82;4.53;;;;;;;;;;5125310;27;20441;-60
2022/01/07 14:03:46;;;;;;;10.25;3.40;;;;;;;;;;5127110;27;20091;-60
2022/01/07 14:06:11;;;;;;;6.72;4.07;;;;;;;;;;5123517;27;20020;-58
2022/01/07 14:08:37;;;;;;;5.93;4.88;;;;;;;;;;5123767;27;20022;-59
2022/01/07 14:11:11;;;;;;;7.90;5.05;;;;;;;;;;5125564;27;20410;-58
2022/01/07 14:13:37;;;;;;;6.95;4.50;;;;;;;;;;5120866;27;20030;-59
2022/01/07 14:16:02;;;;;;;3.50;2.03;;;;;;;;;;5125216;27;20023;-57
2022/01/07 14:18:29;;;;;;;3.42;2.42;;;;;;;;;;5126858;27;20098;-58
2022/01/07 14:21:03;;;;;;;6.88;4.00;;;;;;;;;;5121553;27;20031;-59
2022/01/07 14:23:32;;;;;;;3.10;1.60;;;;;;;;;;5124243;27;20031;-58
2022/01/07 14:26:11;;;;;;;5.55;5.00;;;;;;;;;;5125846;27;20052;-58
2022/01/07 14:28:41;;;;;;;9.70;7.45;;;;;;;;;;5120238;27;20355;-58
2022/01/07 14:31:07;;;;;;;18.00;14.57;;;;;;;;;;5123656;27;20026;-64
2022/01/07 14:33:32;;;;;;;11.77;10.55;;;;;;;;;;5125046;27;20015;-61
2022/01/07 14:35:58;;;;;;;18.77;10.43;;;;;;;;;;5122996;27;20024;-67